Search METAR Data

METAR Data for ENEV:

ENEV 241220Z 17005KT 110V190 9999 FEW046 BKN088 05/M03 Q1009 NOSIG RMK WIND 1400FT 14008KT